createdAt,value
2023-03-15T00:00:19.034Z,99.99
2023-03-15T00:01:18.987Z,99.99
2023-03-15T00:02:18.992Z,99.99
2023-03-15T00:03:18.980Z,99.99
2023-03-15T00:04:18.967Z,99.99
2023-03-15T00:05:18.994Z,99.99
2023-03-15T00:06:18.947Z,99.99
2023-03-15T00:07:18.932Z,99.99
2023-03-15T00:08:18.899Z,99.99
2023-03-15T00:09:18.898Z,99.99
2023-03-15T00:10:18.922Z,99.99
2023-03-15T00:11:18.886Z,99.99
2023-03-15T00:12:18.864Z,99.99
2023-03-15T00:13:18.856Z,99.99
2023-03-15T00:14:18.862Z,99.99
2023-03-15T00:15:18.849Z,99.99
2023-03-15T00:16:18.974Z,99.99
2023-03-15T00:17:18.828Z,99.99
2023-03-15T00:18:18.798Z,99.99
2023-03-15T00:19:18.774Z,99.99
2023-03-15T00:20:18.818Z,99.99
2023-03-15T00:21:18.772Z,99.99
2023-03-15T00:22:18.791Z,99.99
2023-03-15T00:23:18.750Z,99.99
2023-03-15T00:24:18.756Z,99.99
2023-03-15T00:25:18.735Z,99.99
2023-03-15T00:26:18.718Z,99.99
2023-03-15T00:27:18.689Z,99.99
2023-03-15T00:28:18.701Z,99.99
2023-03-15T00:29:18.655Z,99.99
2023-03-15T00:30:18.722Z,99.99
2023-03-15T00:31:18.664Z,99.99
2023-03-15T00:32:18.642Z,99.99
2023-03-15T00:33:18.605Z,99.99
2023-03-15T00:34:18.632Z,99.99
2023-03-15T00:35:18.640Z,99.99
2023-03-15T00:36:18.616Z,99.99
2023-03-15T00:37:18.581Z,99.99
2023-03-15T00:38:18.592Z,99.99
2023-03-15T00:39:18.561Z,99.99
2023-03-15T00:40:18.585Z,99.99
2023-03-15T00:41:18.551Z,99.99
2023-03-15T00:42:18.549Z,99.99
2023-03-15T00:43:18.522Z,99.99
2023-03-15T00:44:18.507Z,99.99
2023-03-15T00:45:18.515Z,99.99
2023-03-15T00:46:18.558Z,99.99
2023-03-15T00:47:18.468Z,99.99
2023-03-15T00:48:18.480Z,99.99
2023-03-15T00:49:18.466Z,99.99
2023-03-15T00:50:18.485Z,99.99
2023-03-15T00:51:18.438Z,99.99
2023-03-15T00:52:18.431Z,99.99
2023-03-15T00:53:18.408Z,99.99
2023-03-15T00:54:18.408Z,99.99
2023-03-15T00:55:18.419Z,99.99
2023-03-15T00:56:18.400Z,99.99
2023-03-15T00:57:18.362Z,99.99
2023-03-15T00:58:18.364Z,99.99
2023-03-15T00:59:18.329Z,99.99
2023-03-15T01:00:18.360Z,99.99
2023-03-15T01:01:18.449Z,99.99
2023-03-15T01:02:18.341Z,99.99
2023-03-15T01:03:18.302Z,99.99
2023-03-15T01:04:18.278Z,99.99
2023-03-15T01:05:18.301Z,99.99
2023-03-15T01:06:18.275Z,99.99
2023-03-15T01:07:18.251Z,99.99
2023-03-15T01:08:18.244Z,99.99
2023-03-15T01:09:18.216Z,99.99
2023-03-15T01:10:18.235Z,99.99
2023-03-15T01:11:18.207Z,99.99
2023-03-15T01:12:18.212Z,99.99
2023-03-15T01:13:18.174Z,99.99
2023-03-15T01:14:18.197Z,99.99
2023-03-15T01:15:18.175Z,99.99
2023-03-15T01:16:18.210Z,99.99
2023-03-15T01:17:18.125Z,99.99
2023-03-15T01:18:18.142Z,99.99
2023-03-15T01:19:18.108Z,99.99
2023-03-15T01:20:18.133Z,99.99
2023-03-15T01:21:18.094Z,99.99
2023-03-15T01:22:18.077Z,99.99
2023-03-15T01:23:18.084Z,99.99
2023-03-15T01:24:18.057Z,99.99
2023-03-15T01:25:18.076Z,99.99
2023-03-15T01:26:18.058Z,99.99
2023-03-15T01:27:18.040Z,99.99
2023-03-15T01:28:17.999Z,99.99
2023-03-15T01:29:18.017Z,99.99
2023-03-15T01:30:18.020Z,99.99
2023-03-15T01:31:18.056Z,99.99
2023-03-15T01:32:17.981Z,99.99
2023-03-15T01:33:17.961Z,99.99
2023-03-15T01:34:17.967Z,99.99
2023-03-15T01:35:17.964Z,99.99
2023-03-15T01:36:17.951Z,99.99
2023-03-15T01:37:17.928Z,99.99
2023-03-15T01:38:17.922Z,99.99
2023-03-15T01:39:17.906Z,99.99
2023-03-15T01:40:17.923Z,99.99
2023-03-15T01:41:17.867Z,99.99
2023-03-15T01:42:17.852Z,99.99
2023-03-15T01:43:17.877Z,99.99
2023-03-15T01:44:17.846Z,99.99
2023-03-15T01:45:17.922Z,99.99
2023-03-15T01:46:17.935Z,99.99
2023-03-15T01:47:17.823Z,99.99
2023-03-15T01:48:17.782Z,99.99
2023-03-15T01:49:17.772Z,99.99
2023-03-15T01:50:17.796Z,99.99
2023-03-15T01:51:17.762Z,99.99
2023-03-15T01:52:17.777Z,99.99
2023-03-15T01:53:17.739Z,99.99
2023-03-15T01:54:17.751Z,99.99
2023-03-15T01:55:17.763Z,99.99
2023-03-15T01:56:17.716Z,99.99
2023-03-15T01:57:17.697Z,99.99
2023-03-15T01:58:17.695Z,99.99
2023-03-15T01:59:17.667Z,99.99
2023-03-15T02:00:17.711Z,99.99
2023-03-15T02:01:17.675Z,99.99
2023-03-15T02:02:17.694Z,99.99
2023-03-15T02:03:17.624Z,99.99
2023-03-15T02:04:17.633Z,99.99
2023-03-15T02:05:17.645Z,99.99
2023-03-15T02:06:17.594Z,99.99
2023-03-15T02:07:17.607Z,99.99
2023-03-15T02:08:17.581Z,99.99
2023-03-15T02:09:17.585Z,99.99
2023-03-15T02:10:17.583Z,99.99
2023-03-15T02:11:17.559Z,99.99
2023-03-15T02:12:17.535Z,99.99
2023-03-15T02:13:17.522Z,99.99
2023-03-15T02:14:17.526Z,99.99
2023-03-15T02:15:17.544Z,99.99
2023-03-15T02:16:17.566Z,99.99
2023-03-15T02:17:17.468Z,99.99
2023-03-15T02:18:17.485Z,99.99
2023-03-15T02:19:17.441Z,99.99
2023-03-15T02:20:17.483Z,99.99
2023-03-15T02:21:17.432Z,99.99
2023-03-15T02:22:17.433Z,99.99
2023-03-15T02:23:17.419Z,99.99
2023-03-15T02:24:17.414Z,99.99
2023-03-15T02:25:17.424Z,99.99
2023-03-15T02:26:17.374Z,99.99
2023-03-15T02:27:17.417Z,99.99
2023-03-15T02:28:17.369Z,99.99
2023-03-15T02:29:17.352Z,99.99
2023-03-15T02:30:17.385Z,99.99
2023-03-15T02:31:17.361Z,99.99
2023-03-15T02:32:17.323Z,99.99
2023-03-15T02:33:17.346Z,99.99
2023-03-15T02:34:17.292Z,99.99
2023-03-15T02:35:17.322Z,99.99
2023-03-15T02:36:17.283Z,99.99
2023-03-15T02:37:17.285Z,99.99
2023-03-15T02:38:17.256Z,99.99
2023-03-15T02:39:17.266Z,99.99
2023-03-15T02:40:17.270Z,99.99
2023-03-15T02:41:17.226Z,99.99
2023-03-15T02:42:17.220Z,99.99
2023-03-15T02:43:17.215Z,99.99
2023-03-15T02:44:17.202Z,99.99
2023-03-15T02:45:17.217Z,99.99
2023-03-15T02:46:17.211Z,99.99
2023-03-15T02:47:17.181Z,99.99
2023-03-15T02:48:17.143Z,99.99
2023-03-15T02:49:17.117Z,99.99
2023-03-15T02:50:17.144Z,99.99
2023-03-15T02:51:17.130Z,99.99
2023-03-15T02:52:17.103Z,99.99
2023-03-15T02:53:17.092Z,99.99
2023-03-15T02:54:17.076Z,99.99
2023-03-15T02:55:17.096Z,99.99
2023-03-15T02:56:17.067Z,99.99
2023-03-15T02:57:17.064Z,99.99
2023-03-15T02:58:17.042Z,99.99
2023-03-15T02:59:17.038Z,99.99
2023-03-15T03:00:17.084Z,99.99
2023-03-15T03:01:17.179Z,99.99
2023-03-15T03:02:17.043Z,99.99
2023-03-15T03:03:16.984Z,99.99
2023-03-15T03:04:16.982Z,99.99
2023-03-15T03:05:17.000Z,99.99
2023-03-15T03:06:16.966Z,99.99
2023-03-15T03:07:16.938Z,99.99
2023-03-15T03:08:16.937Z,99.99
2023-03-15T03:09:16.918Z,99.99
2023-03-15T03:10:16.949Z,99.99
2023-03-15T03:11:16.890Z,99.99
2023-03-15T03:12:16.877Z,99.99
2023-03-15T03:13:16.876Z,99.99
2023-03-15T03:14:16.875Z,99.99
2023-03-15T03:15:16.888Z,99.99
2023-03-15T03:16:16.868Z,99.99
2023-03-15T03:17:16.852Z,99.99
2023-03-15T03:18:16.857Z,99.99
2023-03-15T03:19:16.789Z,99.99
2023-03-15T03:20:16.818Z,99.99
2023-03-15T03:21:16.774Z,99.99
2023-03-15T03:22:16.782Z,99.99
2023-03-15T03:23:16.807Z,99.99
2023-03-15T03:24:16.755Z,99.99
2023-03-15T03:25:16.784Z,99.99
2023-03-15T03:26:16.994Z,99.99
2023-03-15T03:27:16.722Z,99.99
2023-03-15T03:28:16.707Z,99.99
2023-03-15T03:29:16.946Z,99.99
2023-03-15T03:30:16.721Z,99.99
2023-03-15T03:31:16.707Z,99.99
2023-03-15T03:32:16.676Z,99.99
2023-03-15T03:33:16.637Z,99.99
2023-03-15T03:34:16.668Z,99.99
2023-03-15T03:35:16.690Z,99.99
2023-03-15T03:36:16.622Z,99.99
2023-03-15T03:37:16.613Z,99.99
2023-03-15T03:38:16.613Z,99.99
2023-03-15T03:39:16.605Z,99.99
2023-03-15T03:40:16.619Z,99.99
2023-03-15T03:41:16.568Z,99.99
2023-03-15T03:42:16.553Z,99.99
2023-03-15T03:43:16.552Z,99.99
2023-03-15T03:44:16.552Z,99.99
2023-03-15T03:45:16.548Z,99.99
2023-03-15T03:46:16.538Z,99.99
2023-03-15T03:47:16.500Z,99.99
2023-03-15T03:48:16.496Z,99.99
2023-03-15T03:49:16.482Z,99.99
2023-03-15T03:50:16.513Z,99.99
2023-03-15T03:51:16.438Z,99.99
2023-03-15T03:52:16.439Z,99.99
2023-03-15T03:53:16.416Z,99.99
2023-03-15T03:54:17.689Z,99.99
2023-03-15T03:55:16.458Z,99.99
2023-03-15T03:56:16.408Z,99.99
2023-03-15T03:57:16.397Z,99.99
2023-03-15T03:58:16.392Z,99.99
2023-03-15T03:59:16.374Z,99.99
2023-03-15T04:00:16.390Z,99.99
2023-03-15T04:01:16.347Z,99.99
2023-03-15T04:02:16.367Z,99.99
2023-03-15T04:03:16.371Z,99.99
2023-03-15T04:04:16.351Z,99.99
2023-03-15T04:05:16.327Z,99.99
2023-03-15T04:06:16.290Z,99.99
2023-03-15T04:07:17.157Z,99.99
2023-03-15T04:08:16.279Z,99.99
2023-03-15T04:09:16.246Z,99.99
2023-03-15T04:10:16.277Z,99.99
2023-03-15T04:11:16.227Z,99.99
2023-03-15T04:12:16.263Z,99.99
2023-03-15T04:13:16.216Z,99.99
2023-03-15T04:14:16.217Z,99.99
2023-03-15T04:15:16.239Z,99.99
2023-03-15T04:16:16.243Z,99.99
2023-03-15T04:17:16.163Z,99.99
2023-03-15T04:18:16.175Z,99.99
2023-03-15T04:19:16.150Z,99.99
2023-03-15T04:20:16.174Z,99.99
2023-03-15T04:21:16.133Z,99.99
2023-03-15T04:22:16.108Z,99.99
2023-03-15T04:23:16.093Z,99.99
2023-03-15T04:24:16.089Z,99.99
2023-03-15T04:25:16.094Z,99.99
2023-03-15T04:26:16.068Z,99.99
2023-03-15T04:27:16.082Z,99.99
2023-03-15T04:28:16.052Z,99.99
2023-03-15T04:29:16.040Z,99.99
2023-03-15T04:30:16.075Z,99.99
2023-03-15T04:31:16.084Z,99.99
2023-03-15T04:32:16.012Z,99.99
2023-03-15T04:33:16.000Z,99.99
2023-03-15T04:34:15.994Z,99.99
2023-03-15T04:35:16.033Z,99.99
2023-03-15T04:36:15.977Z,99.99
2023-03-15T04:37:15.982Z,99.99
2023-03-15T04:38:15.944Z,99.99
2023-03-15T04:39:15.944Z,99.99
2023-03-15T04:40:15.966Z,99.99
2023-03-15T04:41:15.914Z,99.99
2023-03-15T04:42:15.894Z,99.99
2023-03-15T04:43:15.903Z,99.99
2023-03-15T04:44:15.891Z,99.99
2023-03-15T04:45:15.908Z,99.99
2023-03-15T04:46:15.869Z,99.99
2023-03-15T04:47:15.862Z,99.99
2023-03-15T04:48:15.876Z,99.99
2023-03-15T04:49:15.823Z,99.99
2023-03-15T04:50:15.828Z,99.99
2023-03-15T04:51:15.800Z,99.99
2023-03-15T04:52:15.794Z,99.99
2023-03-15T04:53:15.797Z,99.99
2023-03-15T04:54:15.786Z,99.99
2023-03-15T04:55:15.794Z,99.99
2023-03-15T04:56:15.730Z,99.99
2023-03-15T04:57:15.742Z,99.99
2023-03-15T04:58:15.747Z,99.99
2023-03-15T04:59:15.727Z,99.99
2023-03-15T05:00:15.739Z,99.99
2023-03-15T05:01:15.755Z,99.99
2023-03-15T05:02:15.737Z,99.99
2023-03-15T05:03:15.685Z,99.99
2023-03-15T05:04:15.657Z,99.99
2023-03-15T05:05:15.690Z,99.99
2023-03-15T05:06:15.633Z,99.99
2023-03-15T05:07:15.628Z,99.99
2023-03-15T05:08:15.616Z,99.99
2023-03-15T05:09:15.624Z,99.99
2023-03-15T05:10:15.641Z,99.99
2023-03-15T05:11:15.604Z,99.99
2023-03-15T05:12:15.588Z,99.99
2023-03-15T05:13:15.564Z,99.99
2023-03-15T05:14:15.559Z,99.99
2023-03-15T05:15:15.711Z,99.99
2023-03-15T05:16:15.587Z,99.99
2023-03-15T05:17:15.530Z,99.99
2023-03-15T05:18:15.516Z,99.99
2023-03-15T05:19:15.503Z,99.99
2023-03-15T05:20:15.529Z,99.99
2023-03-15T05:21:15.481Z,99.99
2023-03-15T05:22:15.472Z,99.99
2023-03-15T05:23:15.599Z,99.99
2023-03-15T05:24:15.549Z,99.99
2023-03-15T05:25:15.475Z,99.99
2023-03-15T05:26:15.418Z,99.99
2023-03-15T05:27:15.418Z,99.99
2023-03-15T05:28:15.398Z,99.99
2023-03-15T05:29:15.417Z,99.99
2023-03-15T05:30:15.444Z,99.99
2023-03-15T05:31:15.510Z,99.99
2023-03-15T05:32:15.360Z,99.99
2023-03-15T05:33:15.374Z,99.99
2023-03-15T05:34:15.362Z,99.99
2023-03-15T05:35:15.382Z,99.99
2023-03-15T05:36:15.338Z,99.99
2023-03-15T05:37:15.311Z,99.99
2023-03-15T05:38:15.313Z,99.99
2023-03-15T05:39:15.277Z,99.99
2023-03-15T05:40:15.319Z,99.99
2023-03-15T05:41:15.260Z,99.99
2023-03-15T05:42:15.262Z,99.99
2023-03-15T05:43:15.254Z,99.99
2023-03-15T05:44:15.218Z,99.99
2023-03-15T05:45:15.244Z,99.99
2023-03-15T05:46:15.324Z,99.99
2023-03-15T05:47:15.197Z,99.99
2023-03-15T05:48:15.189Z,99.99
2023-03-15T05:49:15.170Z,99.99
2023-03-15T05:50:15.221Z,99.99
2023-03-15T05:51:15.168Z,99.99
2023-03-15T05:52:15.143Z,99.99
2023-03-15T05:53:15.128Z,99.99
2023-03-15T05:54:15.117Z,99.99
2023-03-15T05:55:15.127Z,99.99
2023-03-15T05:56:15.077Z,99.99
2023-03-15T05:57:15.058Z,99.99
2023-03-15T05:58:15.056Z,99.99
2023-03-15T05:59:15.070Z,99.99
2023-03-15T06:00:15.069Z,99.99
2023-03-15T06:01:15.043Z,99.99
2023-03-15T06:02:15.048Z,99.99
2023-03-15T06:03:15.079Z,99.99
2023-03-15T06:04:15.024Z,99.99
2023-03-15T06:05:15.057Z,99.99
2023-03-15T06:06:14.966Z,99.99
2023-03-15T06:07:14.989Z,99.99
2023-03-15T06:08:14.951Z,99.99
2023-03-15T06:09:14.959Z,99.99
2023-03-15T06:10:14.998Z,99.99
2023-03-15T06:11:14.938Z,99.99
2023-03-15T06:12:14.916Z,99.99
2023-03-15T06:13:17.822Z,99.99
2023-03-15T06:14:14.872Z,99.99
2023-03-15T06:15:14.939Z,99.99
2023-03-15T06:16:14.962Z,99.99
2023-03-15T06:17:14.872Z,99.99
2023-03-15T06:18:14.868Z,99.99
2023-03-15T06:19:14.858Z,99.76
2023-03-15T06:20:14.888Z,99.15
2023-03-15T06:21:14.821Z,98.74
2023-03-15T06:22:14.798Z,97.55
2023-03-15T06:23:14.811Z,97.30
2023-03-15T06:24:14.783Z,96.82
2023-03-15T06:25:14.816Z,95.89
2023-03-15T06:26:14.766Z,95.63
2023-03-15T06:27:14.777Z,96.27
2023-03-15T06:28:14.762Z,93.99
2023-03-15T06:29:14.736Z,92.43
2023-03-15T06:30:16.949Z,93.32
2023-03-15T06:31:14.880Z,93.70
2023-03-15T06:32:14.690Z,94.64
2023-03-15T06:33:14.679Z,90.44
2023-03-15T06:34:14.672Z,89.27
2023-03-15T06:35:14.721Z,91.66
2023-03-15T06:36:14.659Z,90.45
2023-03-15T06:37:16.353Z,90.81
2023-03-15T06:38:15.617Z,91.02
2023-03-15T06:39:14.631Z,93.37
2023-03-15T06:40:14.646Z,92.69
2023-03-15T06:41:14.623Z,90.87
2023-03-15T06:42:14.586Z,90.45
2023-03-15T06:43:14.601Z,91.08
2023-03-15T06:44:14.562Z,92.38
2023-03-15T06:45:14.602Z,92.10
2023-03-15T06:46:14.642Z,92.43
2023-03-15T06:47:14.532Z,88.94
2023-03-15T06:48:14.523Z,88.15
2023-03-15T06:49:14.494Z,90.66
2023-03-15T06:50:14.539Z,87.07
2023-03-15T06:51:14.468Z,89.15
2023-03-15T06:52:14.493Z,87.26
2023-03-15T06:53:14.460Z,90.85
2023-03-15T06:54:14.456Z,88.30
2023-03-15T06:55:14.453Z,87.99
2023-03-15T06:56:14.414Z,89.21
2023-03-15T06:57:14.402Z,86.87
2023-03-15T06:58:14.416Z,86.83
2023-03-15T06:59:14.413Z,85.31
2023-03-15T07:00:14.440Z,86.41
2023-03-15T07:01:14.486Z,86.31
2023-03-15T07:02:14.368Z,85.86
2023-03-15T07:03:14.346Z,85.40
2023-03-15T07:04:14.332Z,84.16
2023-03-15T07:05:14.413Z,85.40
2023-03-15T07:06:14.350Z,83.06
2023-03-15T07:07:14.308Z,83.89
2023-03-15T07:08:14.296Z,83.99
2023-03-15T07:09:14.305Z,84.61
2023-03-15T07:10:14.330Z,84.68
2023-03-15T07:11:14.276Z,83.81
2023-03-15T07:12:14.256Z,81.57
2023-03-15T07:13:14.255Z,83.64
2023-03-15T07:14:14.208Z,82.50
2023-03-15T07:15:16.101Z,82.05
2023-03-15T07:16:14.272Z,80.98
2023-03-15T07:17:14.197Z,80.29
2023-03-15T07:18:14.220Z,81.23
2023-03-15T07:19:14.158Z,83.70
2023-03-15T07:20:14.195Z,80.87
2023-03-15T07:21:14.171Z,82.52
2023-03-15T07:22:14.179Z,78.91
2023-03-15T07:23:14.147Z,78.28
2023-03-15T07:24:14.098Z,79.05
2023-03-15T07:25:14.128Z,81.35
2023-03-15T07:26:14.078Z,81.03
2023-03-15T07:27:16.134Z,77.31
2023-03-15T07:28:14.061Z,76.49
2023-03-15T07:29:14.072Z,76.35
2023-03-15T07:30:14.102Z,78.35
2023-03-15T07:31:14.073Z,77.84
2023-03-15T07:32:14.073Z,76.94
2023-03-15T07:33:14.049Z,79.05
2023-03-15T07:34:14.006Z,80.97
2023-03-15T07:35:14.045Z,79.77
2023-03-15T07:36:13.981Z,83.44
2023-03-15T07:37:13.991Z,86.44
2023-03-15T07:38:13.961Z,86.54
2023-03-15T07:39:13.957Z,83.34
2023-03-15T07:40:13.977Z,85.00
2023-03-15T07:41:13.908Z,85.25
2023-03-15T07:42:13.915Z,88.98
2023-03-15T07:43:13.894Z,85.73
2023-03-15T07:44:13.886Z,85.38
2023-03-15T07:45:13.940Z,86.25
2023-03-15T07:46:13.924Z,82.87
2023-03-15T07:47:13.846Z,84.87
2023-03-15T07:48:13.859Z,85.11
2023-03-15T07:49:13.835Z,82.81
2023-03-15T07:50:16.835Z,83.41
2023-03-15T07:51:13.833Z,85.77
2023-03-15T07:52:13.791Z,87.12
2023-03-15T07:53:13.804Z,87.68
2023-03-15T07:54:13.786Z,90.48
2023-03-15T07:55:13.786Z,86.88
2023-03-15T07:56:13.737Z,87.71
2023-03-15T07:57:13.728Z,90.00
2023-03-15T07:58:13.721Z,89.06
2023-03-15T07:59:13.715Z,89.94
2023-03-15T08:00:13.747Z,91.03
2023-03-15T08:01:13.725Z,90.83
2023-03-15T08:02:13.746Z,91.66
2023-03-15T08:03:13.705Z,88.44
2023-03-15T08:04:13.656Z,88.54
2023-03-15T08:05:13.696Z,88.20
2023-03-15T08:06:13.630Z,88.09
2023-03-15T08:07:13.608Z,87.99
2023-03-15T08:08:13.593Z,88.36
2023-03-15T08:09:13.610Z,87.74
2023-03-15T08:10:13.636Z,85.56
2023-03-15T08:11:13.584Z,86.60
2023-03-15T08:12:13.583Z,87.12
2023-03-15T08:13:13.574Z,86.60
2023-03-15T08:14:13.549Z,87.38
2023-03-15T08:15:13.555Z,86.45
2023-03-15T08:16:13.580Z,85.73
2023-03-15T08:17:13.523Z,85.11
2023-03-15T08:18:13.489Z,86.52
2023-03-15T08:19:13.532Z,82.89
2023-03-15T08:20:13.490Z,82.68
2023-03-15T08:21:13.457Z,82.95
2023-03-15T08:22:13.454Z,83.61
2023-03-15T08:23:13.455Z,80.26
2023-03-15T08:24:13.496Z,79.16
2023-03-15T08:25:13.483Z,80.74
2023-03-15T08:26:13.383Z,79.33
2023-03-15T08:27:13.398Z,80.46
2023-03-15T08:28:13.365Z,81.43
2023-03-15T08:29:13.382Z,82.26
2023-03-15T08:30:13.380Z,81.74
2023-03-15T08:31:13.393Z,82.92
2023-03-15T08:32:13.336Z,84.88
2023-03-15T08:33:13.336Z,84.78
2023-03-15T08:34:13.302Z,83.64
2023-03-15T08:35:15.705Z,83.61
2023-03-15T08:36:13.378Z,83.36
2023-03-15T08:37:13.297Z,83.05
2023-03-15T08:38:13.270Z,82.35
2023-03-15T08:39:13.246Z,81.42
2023-03-15T08:40:13.274Z,82.69
2023-03-15T08:41:13.242Z,82.14
2023-03-15T08:42:13.230Z,83.17
2023-03-15T08:43:13.216Z,82.65
2023-03-15T08:44:13.226Z,82.54
2023-03-15T08:45:13.259Z,79.17
2023-03-15T08:46:13.226Z,81.30
2023-03-15T08:47:13.174Z,79.75
2023-03-15T08:48:13.151Z,79.90
2023-03-15T08:49:13.161Z,79.69
2023-03-15T08:50:13.178Z,81.20
2023-03-15T08:51:13.144Z,80.30
2023-03-15T08:52:13.116Z,79.40
2023-03-15T08:53:13.122Z,76.59
2023-03-15T08:54:13.093Z,75.70
2023-03-15T08:55:13.136Z,75.35
2023-03-15T08:56:13.069Z,75.24
2023-03-15T08:57:13.040Z,72.38
2023-03-15T08:58:13.038Z,75.08
2023-03-15T08:59:19.428Z,74.19
2023-03-15T09:00:14.056Z,73.40
2023-03-15T09:01:13.006Z,73.44
2023-03-15T09:02:13.034Z,73.81
2023-03-15T09:03:12.996Z,73.85
2023-03-15T09:04:13.063Z,73.64
2023-03-15T09:05:12.995Z,76.41
2023-03-15T09:06:12.960Z,76.68
2023-03-15T09:07:12.956Z,73.36
2023-03-15T09:08:12.944Z,71.53
2023-03-15T09:09:12.907Z,70.12
2023-03-15T09:10:12.934Z,71.90
2023-03-15T09:11:12.876Z,72.52
2023-03-15T09:12:12.894Z,69.75
2023-03-15T09:13:12.884Z,71.08
2023-03-15T09:14:12.868Z,71.35
2023-03-15T09:15:12.910Z,74.08
2023-03-15T09:16:12.879Z,76.82
2023-03-15T09:17:12.877Z,74.53
2023-03-15T09:18:12.799Z,74.98
2023-03-15T09:19:12.803Z,75.82
2023-03-15T09:20:12.827Z,72.86
2023-03-15T09:21:12.780Z,69.31
2023-03-15T09:22:16.913Z,70.87
2023-03-15T09:23:13.771Z,69.04
2023-03-15T09:24:12.826Z,71.42
2023-03-15T09:25:12.794Z,69.31
2023-03-15T09:26:12.733Z,69.38
2023-03-15T09:27:12.708Z,70.60
2023-03-15T09:28:12.701Z,72.34
2023-03-15T09:29:12.686Z,75.04
2023-03-15T09:30:12.735Z,73.85
2023-03-15T09:31:12.713Z,72.65
2023-03-15T09:32:12.681Z,70.88
2023-03-15T09:33:12.682Z,67.97
2023-03-15T09:34:12.655Z,73.85
2023-03-15T09:35:12.661Z,69.71
2023-03-15T09:36:12.614Z,68.59
2023-03-15T09:37:12.617Z,73.23
2023-03-15T09:38:12.603Z,75.66
2023-03-15T09:39:12.573Z,75.29
2023-03-15T09:40:12.604Z,76.20
2023-03-15T09:41:12.563Z,74.46
2023-03-15T09:42:12.559Z,72.14
2023-03-15T09:43:12.551Z,71.15
2023-03-15T09:44:12.555Z,70.87
2023-03-15T09:45:12.531Z,73.13
2023-03-15T09:46:12.521Z,73.61
2023-03-15T09:47:12.508Z,73.27
2023-03-15T09:48:12.479Z,74.98
2023-03-15T09:49:12.484Z,76.65
2023-03-15T09:50:12.519Z,72.31
2023-03-15T09:51:12.454Z,69.00
2023-03-15T09:52:12.443Z,71.63
2023-03-15T09:53:12.459Z,66.52
2023-03-15T09:54:12.439Z,70.67
2023-03-15T09:55:12.492Z,71.15
2023-03-15T09:56:12.397Z,71.49
2023-03-15T09:57:12.362Z,71.97
2023-03-15T09:58:12.357Z,71.62
2023-03-15T09:59:12.339Z,74.26
2023-03-15T10:00:12.385Z,75.63
2023-03-15T10:01:12.412Z,76.79
2023-03-15T10:02:12.336Z,79.26
2023-03-15T10:03:12.389Z,78.10
2023-03-15T10:04:12.309Z,80.16
2023-03-15T10:05:12.329Z,80.71
2023-03-15T10:06:12.279Z,80.71
2023-03-15T10:07:12.273Z,78.96
2023-03-15T10:08:12.267Z,78.61
2023-03-15T10:09:12.253Z,78.38
2023-03-15T10:10:12.220Z,79.20
2023-03-15T10:11:12.280Z,80.30
2023-03-15T10:12:12.217Z,81.54
2023-03-15T10:13:12.208Z,82.20
2023-03-15T10:14:12.210Z,82.55
2023-03-15T10:15:12.169Z,82.38
2023-03-15T10:16:12.322Z,84.41
2023-03-15T10:17:12.194Z,82.65
2023-03-15T10:18:12.171Z,83.85
2023-03-15T10:19:12.145Z,83.03
2023-03-15T10:20:12.147Z,84.01
2023-03-15T10:21:12.144Z,82.98
2023-03-15T10:22:12.086Z,82.98
2023-03-15T10:23:12.090Z,83.75
2023-03-15T10:24:12.129Z,82.24
2023-03-15T10:25:12.067Z,83.06
2023-03-15T10:26:13.333Z,82.75
2023-03-15T10:27:12.048Z,83.48
2023-03-15T10:28:12.018Z,82.40
2023-03-15T10:29:11.996Z,80.79
2023-03-15T10:30:11.993Z,81.49
2023-03-15T10:31:16.273Z,84.79
2023-03-15T10:32:12.999Z,84.17
2023-03-15T10:33:12.015Z,84.23
2023-03-15T10:34:11.994Z,82.92
2023-03-15T10:35:11.976Z,81.48
2023-03-15T10:36:12.035Z,81.61
2023-03-15T10:37:11.925Z,78.79
2023-03-15T10:38:11.916Z,78.82
2023-03-15T10:39:11.898Z,75.97
2023-03-15T10:40:11.873Z,75.35
2023-03-15T10:41:15.259Z,74.02
2023-03-15T10:42:11.881Z,75.15
2023-03-15T10:43:11.834Z,76.28
2023-03-15T10:44:11.832Z,75.04
2023-03-15T10:45:11.814Z,74.29
2023-03-15T10:46:11.936Z,77.58
2023-03-15T10:47:22.447Z,77.14
2023-03-15T10:48:12.782Z,75.97
2023-03-15T10:49:11.806Z,76.18
2023-03-15T10:50:11.779Z,74.36
2023-03-15T10:51:12.617Z,77.58
2023-03-15T10:52:11.767Z,78.28
2023-03-15T10:53:11.744Z,79.03
2023-03-15T10:54:11.727Z,81.30
2023-03-15T10:55:11.725Z,79.24
2023-03-15T10:56:11.747Z,80.47
2023-03-15T10:57:11.690Z,76.59
2023-03-15T10:58:11.678Z,78.48
2023-03-15T10:59:13.083Z,78.55
2023-03-15T11:00:11.652Z,77.89
2023-03-15T11:01:11.694Z,77.48
2023-03-15T11:02:11.658Z,75.70
2023-03-15T11:03:11.660Z,74.46
2023-03-15T11:04:11.611Z,75.12
2023-03-15T11:05:11.601Z,75.94
2023-03-15T11:06:11.607Z,76.49
2023-03-15T11:07:11.572Z,76.01
2023-03-15T11:08:11.573Z,77.80
2023-03-15T11:09:11.547Z,78.93
2023-03-15T11:10:11.544Z,79.06
2023-03-15T11:11:11.579Z,79.09
2023-03-15T11:12:11.527Z,75.70
2023-03-15T11:13:11.506Z,73.23
2023-03-15T11:14:11.481Z,72.34
2023-03-15T11:15:11.487Z,69.81
2023-03-15T11:16:11.610Z,71.62
2023-03-15T11:17:11.513Z,72.48
2023-03-15T11:18:11.475Z,72.20
2023-03-15T11:19:11.423Z,73.02
2023-03-15T11:20:11.432Z,73.47
2023-03-15T11:21:11.462Z,72.27
2023-03-15T11:22:11.418Z,73.50
2023-03-15T11:23:11.379Z,76.38
2023-03-15T11:24:11.386Z,75.46
2023-03-15T11:25:11.366Z,68.81
2023-03-15T11:26:14.098Z,69.57
2023-03-15T11:27:12.357Z,64.60
2023-03-15T11:28:11.330Z,63.86
2023-03-15T11:29:11.299Z,63.10
2023-03-15T11:30:11.302Z,63.91
2023-03-15T11:31:11.402Z,65.75
2023-03-15T11:32:11.308Z,66.72
2023-03-15T11:33:11.279Z,63.18
2023-03-15T11:34:11.278Z,61.35
2023-03-15T11:35:11.248Z,62.21
2023-03-15T11:36:12.440Z,64.05
2023-03-15T11:37:13.112Z,65.26
2023-03-15T11:38:15.198Z,65.23
2023-03-15T11:39:11.207Z,63.83
2023-03-15T11:40:12.596Z,66.69
2023-03-15T11:41:11.211Z,66.37
2023-03-15T11:42:11.331Z,70.50
2023-03-15T11:43:11.186Z,69.40
2023-03-15T11:44:11.158Z,67.68
2023-03-15T11:45:11.141Z,72.48
2023-03-15T11:46:11.302Z,68.79
2023-03-15T11:47:11.145Z,67.27
2023-03-15T11:48:11.124Z,67.14
2023-03-15T11:49:11.096Z,65.83
2023-03-15T11:50:11.096Z,61.46
2023-03-15T11:51:11.124Z,59.73
2023-03-15T11:52:11.078Z,56.16
2023-03-15T11:53:11.051Z,58.48
2023-03-15T11:54:11.049Z,58.76
2023-03-15T11:55:11.039Z,58.34
2023-03-15T11:56:11.116Z,60.44
2023-03-15T11:57:11.033Z,63.82
2023-03-15T11:58:11.001Z,63.68
2023-03-15T11:59:11.004Z,67.32
2023-03-15T12:00:11.000Z,67.43
2023-03-15T12:01:10.980Z,66.87
2023-03-15T12:02:11.150Z,67.83
2023-03-15T12:03:10.952Z,67.07
2023-03-15T12:04:10.932Z,69.23
2023-03-15T12:05:17.965Z,69.60
2023-03-15T12:06:11.945Z,69.18
2023-03-15T12:07:10.891Z,69.42
2023-03-15T12:08:10.926Z,70.69
2023-03-15T12:09:10.871Z,71.34
2023-03-15T12:10:10.905Z,71.86
2023-03-15T12:11:10.877Z,71.34
2023-03-15T12:12:10.846Z,72.68
2023-03-15T12:13:10.886Z,71.86
2023-03-15T12:14:10.815Z,72.99
2023-03-15T12:15:10.808Z,75.01
2023-03-15T12:16:10.882Z,74.46
2023-03-15T12:17:10.788Z,73.54
2023-03-15T12:18:10.792Z,72.09
2023-03-15T12:19:10.750Z,74.05
2023-03-15T12:20:10.781Z,71.20
2023-03-15T12:21:10.771Z,69.25
2023-03-15T12:22:10.752Z,71.75
2023-03-15T12:23:10.714Z,72.06
2023-03-15T12:24:10.717Z,71.96
2023-03-15T12:25:10.691Z,72.68
2023-03-15T12:26:10.735Z,72.75
2023-03-15T12:27:10.680Z,72.81
2023-03-15T12:28:10.681Z,71.55
2023-03-15T12:29:10.634Z,70.04
2023-03-15T12:30:10.627Z,69.63
2023-03-15T12:31:10.672Z,71.34
2023-03-15T12:32:10.624Z,70.83
2023-03-15T12:33:10.585Z,69.80
2023-03-15T12:34:10.599Z,70.86
2023-03-15T12:35:10.562Z,69.01
2023-03-15T12:36:10.626Z,70.38
2023-03-15T12:37:10.569Z,71.34
2023-03-15T12:38:10.542Z,72.99
2023-03-15T12:39:10.527Z,73.02
2023-03-15T12:40:10.519Z,72.30
2023-03-15T12:41:10.545Z,71.34
2023-03-15T12:42:10.500Z,71.23
2023-03-15T12:43:10.517Z,73.02
2023-03-15T12:44:10.458Z,71.68
2023-03-15T12:45:10.446Z,69.87
2023-03-15T12:46:10.485Z,68.40
2023-03-15T12:47:10.431Z,67.81
2023-03-15T12:48:10.430Z,68.35
2023-03-15T12:49:10.435Z,69.01
2023-03-15T12:50:10.423Z,69.49
2023-03-15T12:51:10.539Z,68.50
2023-03-15T12:52:10.400Z,68.80